createdAt,value
2018-10-04T00:01:39.719Z,11.30
2018-10-04T00:04:08.913Z,11.30
2018-10-04T00:06:42.362Z,11.30
2018-10-04T00:09:11.919Z,11.40
2018-10-04T00:11:46.205Z,11.40
2018-10-04T00:14:15.447Z,11.30
2018-10-04T00:16:52.192Z,11.30
2018-10-04T00:19:21.471Z,11.40
2018-10-04T00:21:50.764Z,11.40
2018-10-04T00:24:20.506Z,11.40
2018-10-04T00:26:53.926Z,11.50
2018-10-04T00:29:23.126Z,11.40
2018-10-04T00:31:56.312Z,11.40
2018-10-04T00:34:25.564Z,11.40
2018-10-04T00:36:58.472Z,11.40
2018-10-04T00:39:28.014Z,11.50
2018-10-04T00:42:01.112Z,11.50
2018-10-04T00:44:30.331Z,11.50
2018-10-04T00:49:33.716Z,11.60
2018-10-04T00:52:03.706Z,11.60
2018-10-04T00:54:39.022Z,11.70
2018-10-04T00:57:15.807Z,11.70
2018-10-04T00:59:45.135Z,11.70
2018-10-04T01:02:16.055Z,11.80
2018-10-04T01:04:46.772Z,11.80
2018-10-04T01:07:19.182Z,11.80
2018-10-04T01:09:48.433Z,11.80
2018-10-04T01:12:23.045Z,11.80
2018-10-04T01:14:52.278Z,11.80
2018-10-04T01:17:24.685Z,11.90
2018-10-04T01:19:53.902Z,11.90
2018-10-04T01:22:27.042Z,12.00
2018-10-04T01:24:57.065Z,12.00
2018-10-04T01:27:29.401Z,12.00
2018-10-04T01:29:59.599Z,12.00
2018-10-04T01:32:31.675Z,12.10
2018-10-04T01:35:00.864Z,12.10
2018-10-04T01:37:35.822Z,12.20
2018-10-04T01:40:05.486Z,12.20
2018-10-04T01:42:38.071Z,12.20
2018-10-04T01:45:07.450Z,12.20
2018-10-04T01:47:40.416Z,12.20
2018-10-04T01:50:09.677Z,12.20
2018-10-04T01:52:43.114Z,12.30
2018-10-04T01:55:12.285Z,12.30
2018-10-04T01:57:45.130Z,12.30
2018-10-04T02:00:14.792Z,12.30
2018-10-04T02:02:49.448Z,12.40
2018-10-04T02:05:18.807Z,12.40
2018-10-04T02:07:51.338Z,12.40
2018-10-04T02:10:20.575Z,12.40
2018-10-04T02:12:53.558Z,12.50
2018-10-04T02:15:22.712Z,12.50
2018-10-04T02:17:56.615Z,12.50
2018-10-04T02:20:25.779Z,12.50
2018-10-04T02:22:59.937Z,12.50
2018-10-04T02:25:29.538Z,12.60
2018-10-04T02:28:03.522Z,12.50
2018-10-04T02:30:32.758Z,12.50
2018-10-04T02:33:06.539Z,12.50
2018-10-04T02:35:35.765Z,12.50
2018-10-04T02:38:09.563Z,12.60
2018-10-04T02:40:38.760Z,12.60
2018-10-04T02:43:13.079Z,12.60
2018-10-04T02:45:42.390Z,12.60
2018-10-04T02:48:14.613Z,12.70
2018-10-04T02:50:44.113Z,12.70
2018-10-04T02:53:16.942Z,12.70
2018-10-04T02:55:51.373Z,12.70
2018-10-04T02:58:20.555Z,12.70
2018-10-04T03:00:49.802Z,12.80
2018-10-04T03:03:26.717Z,12.70
2018-10-04T03:05:55.934Z,12.70
2018-10-04T03:08:25.130Z,12.70
2018-10-04T03:10:54.774Z,12.70
2018-10-04T03:13:27.761Z,12.70
2018-10-04T03:15:57.029Z,12.70
2018-10-04T03:18:30.101Z,12.80
2018-10-04T03:20:59.295Z,12.80
2018-10-04T03:23:32.592Z,12.80
2018-10-04T03:26:01.771Z,12.90
2018-10-04T03:28:34.791Z,12.90
2018-10-04T03:31:04.317Z,13.00
2018-10-04T03:33:40.687Z,13.00
2018-10-04T03:36:09.856Z,12.90
2018-10-04T03:38:40.707Z,12.90
2018-10-04T03:41:09.878Z,12.90
2018-10-04T03:43:42.223Z,12.90
2018-10-04T03:46:11.457Z,12.90
2018-10-04T03:48:44.710Z,12.90
2018-10-04T03:51:13.932Z,13.00
2018-10-04T03:53:47.237Z,13.00
2018-10-04T03:56:16.819Z,12.90
2018-10-04T03:58:50.793Z,13.00
2018-10-04T04:01:20.039Z,13.00
2018-10-04T04:03:54.264Z,13.00
2018-10-04T04:06:23.903Z,13.10
2018-10-04T04:08:56.882Z,13.10
2018-10-04T04:11:26.099Z,13.10
2018-10-04T04:13:59.371Z,13.10
2018-10-04T04:16:28.606Z,13.10
2018-10-04T04:19:01.132Z,13.10
2018-10-04T04:21:30.359Z,13.10
2018-10-04T04:24:04.693Z,13.20
2018-10-04T04:26:34.267Z,13.10
2018-10-04T04:29:07.591Z,13.10
2018-10-04T04:31:36.814Z,12.90
2018-10-04T04:34:11.214Z,12.90
2018-10-04T04:36:40.542Z,12.90
2018-10-04T04:39:13.367Z,12.80
2018-10-04T04:41:43.021Z,12.90
2018-10-04T04:44:16.970Z,13.00
2018-10-04T04:46:46.579Z,13.00
2018-10-04T04:49:20.348Z,13.00
2018-10-04T04:51:49.662Z,13.10
2018-10-04T04:54:35.128Z,13.10
2018-10-04T04:57:04.324Z,13.20
2018-10-04T04:59:34.979Z,13.10
2018-10-04T05:02:04.165Z,13.10
2018-10-04T05:04:34.031Z,13.20
2018-10-04T05:07:03.690Z,13.30
2018-10-04T05:09:32.858Z,13.20
2018-10-04T05:12:02.047Z,13.30
2018-10-04T05:14:33.070Z,13.30
2018-10-04T05:17:02.306Z,13.30
2018-10-04T05:19:38.958Z,13.40
2018-10-04T05:22:08.925Z,13.40
2018-10-04T05:24:38.418Z,13.40
2018-10-04T05:27:07.678Z,13.40
2018-10-04T05:29:41.640Z,13.40
2018-10-04T05:32:11.086Z,13.40
2018-10-04T05:34:44.707Z,13.40
2018-10-04T05:37:14.067Z,13.40
2018-10-04T05:39:47.363Z,13.40
2018-10-04T05:42:18.076Z,13.40
2018-10-04T05:44:48.275Z,13.40
2018-10-04T05:47:17.662Z,13.40
2018-10-04T05:49:52.700Z,13.40
2018-10-04T05:52:22.074Z,13.50
2018-10-04T05:54:56.096Z,13.50
2018-10-04T05:57:25.331Z,13.50
2018-10-04T06:00:05.295Z,13.50
2018-10-04T06:02:34.930Z,13.50
2018-10-04T06:05:04.249Z,13.60
2018-10-04T06:07:33.458Z,13.60
2018-10-04T06:10:07.123Z,13.60
2018-10-04T06:12:36.792Z,13.60
2018-10-04T06:15:09.943Z,13.60
2018-10-04T06:17:39.395Z,13.60
2018-10-04T06:20:11.846Z,13.60
2018-10-04T06:22:41.598Z,13.70
2018-10-04T06:25:14.970Z,13.70
2018-10-04T06:27:44.258Z,13.80
2018-10-04T06:30:17.011Z,13.80
2018-10-04T06:32:46.662Z,13.80
2018-10-04T06:35:19.553Z,13.70
2018-10-04T06:37:48.807Z,13.70
2018-10-04T06:40:22.574Z,13.70
2018-10-04T06:42:51.829Z,13.70
2018-10-04T06:45:24.482Z,13.80
2018-10-04T06:47:54.100Z,13.80
2018-10-04T06:50:27.064Z,13.90
2018-10-04T06:52:56.299Z,13.90
2018-10-04T06:55:29.693Z,13.90
2018-10-04T06:57:59.588Z,14.00
2018-10-04T07:00:33.995Z,14.00
2018-10-04T07:03:03.257Z,14.00
2018-10-04T07:05:37.196Z,14.00
2018-10-04T07:08:06.546Z,14.00
2018-10-04T07:10:38.041Z,14.10
2018-10-04T07:13:07.665Z,14.10
2018-10-04T07:15:42.386Z,14.10
2018-10-04T07:18:11.738Z,14.10
2018-10-04T07:20:44.919Z,14.20
2018-10-04T07:23:14.142Z,14.20
2018-10-04T07:25:47.306Z,14.30
2018-10-04T07:28:16.738Z,14.20
2018-10-04T07:30:50.781Z,14.30
2018-10-04T07:33:20.433Z,14.20
2018-10-04T07:35:54.410Z,14.20
2018-10-04T07:38:23.657Z,14.20
2018-10-04T07:40:55.775Z,14.30
2018-10-04T07:43:25.086Z,14.30
2018-10-04T07:45:58.502Z,14.30
2018-10-04T07:48:27.836Z,14.30
2018-10-04T07:51:00.359Z,14.40
2018-10-04T07:53:30.033Z,14.40
2018-10-04T07:56:03.483Z,14.40
2018-10-04T07:58:32.891Z,14.30
2018-10-04T08:01:07.725Z,14.30
2018-10-04T08:03:38.375Z,14.30
2018-10-04T08:06:12.920Z,14.40
2018-10-04T08:08:42.114Z,14.40
2018-10-04T08:11:18.889Z,14.40
2018-10-04T08:13:48.515Z,14.50
2018-10-04T08:16:18.290Z,14.60
2018-10-04T08:18:47.591Z,14.60
2018-10-04T08:21:20.450Z,14.60
2018-10-04T08:23:50.119Z,14.70
2018-10-04T08:26:23.168Z,14.70
2018-10-04T08:28:52.437Z,14.80
2018-10-04T08:31:25.643Z,14.70
2018-10-04T08:33:54.883Z,14.80
2018-10-04T08:36:28.484Z,14.80
2018-10-04T08:38:58.246Z,14.90
2018-10-04T08:41:37.277Z,14.90
2018-10-04T08:44:06.812Z,14.90
2018-10-04T08:46:36.442Z,14.90
2018-10-04T08:49:05.742Z,14.90
2018-10-04T08:51:44.008Z,15.00
2018-10-04T08:54:13.588Z,15.00
2018-10-04T08:56:42.961Z,15.10
2018-10-04T08:59:12.264Z,15.20
2018-10-04T09:01:43.879Z,15.10
2018-10-04T09:04:13.317Z,15.20
2018-10-04T09:06:46.573Z,15.20
2018-10-04T09:09:16.319Z,15.10
2018-10-04T09:11:52.862Z,15.10
2018-10-04T09:14:22.474Z,15.10
2018-10-04T09:16:52.872Z,15.20
2018-10-04T09:19:22.191Z,15.20
2018-10-04T09:21:55.078Z,15.20
2018-10-04T09:24:25.019Z,15.20
2018-10-04T09:26:58.430Z,15.20
2018-10-04T09:29:32.293Z,15.30
2018-10-04T09:32:03.249Z,15.30
2018-10-04T09:34:33.179Z,15.40
2018-10-04T09:37:05.819Z,15.40
2018-10-04T09:39:35.282Z,15.50
2018-10-04T09:42:07.494Z,15.50
2018-10-04T09:44:36.830Z,15.50
2018-10-04T09:47:16.018Z,15.50
2018-10-04T09:49:46.091Z,15.60
2018-10-04T09:52:16.755Z,15.50
2018-10-04T09:54:51.084Z,15.60
2018-10-04T09:57:30.452Z,15.60
2018-10-04T10:00:00.527Z,15.50
2018-10-04T10:02:35.154Z,15.50
2018-10-04T10:05:04.548Z,15.50
2018-10-04T10:07:33.923Z,15.50
2018-10-04T10:10:03.601Z,15.50
2018-10-04T10:12:32.911Z,15.50
2018-10-04T10:15:02.361Z,15.50
2018-10-04T10:17:32.297Z,15.60
2018-10-04T10:20:02.410Z,15.60
2018-10-04T10:22:35.094Z,15.60
2018-10-04T10:25:04.884Z,15.70
2018-10-04T10:27:35.739Z,15.70
2018-10-04T10:30:05.777Z,15.70
2018-10-04T10:32:42.520Z,15.70
2018-10-04T10:35:11.938Z,15.80
2018-10-04T10:37:42.051Z,15.90
2018-10-04T10:40:12.981Z,16.00
2018-10-04T10:42:44.188Z,16.00
2018-10-04T10:45:13.539Z,16.00
2018-10-04T10:47:51.084Z,16.00
2018-10-04T10:50:20.541Z,16.10
2018-10-04T10:52:49.974Z,16.10
2018-10-04T10:55:20.043Z,16.10
2018-10-04T10:57:53.154Z,16.10
2018-10-04T11:00:22.588Z,16.10
2018-10-04T11:02:55.673Z,16.20
2018-10-04T11:05:25.093Z,16.20
2018-10-04T11:07:59.041Z,16.20
2018-10-04T11:10:28.583Z,16.30
2018-10-04T11:13:01.824Z,16.30
2018-10-04T11:15:31.159Z,16.40
2018-10-04T11:18:04.524Z,16.40
2018-10-04T11:20:34.379Z,16.50
2018-10-04T11:23:07.782Z,16.50
2018-10-04T11:25:37.157Z,16.50
2018-10-04T11:28:14.649Z,16.50
2018-10-04T11:30:44.002Z,16.60
2018-10-04T11:33:14.697Z,16.60
2018-10-04T11:35:44.450Z,16.60
2018-10-04T11:38:17.226Z,16.70
2018-10-04T11:40:47.979Z,16.70
2018-10-04T11:43:23.865Z,16.70
2018-10-04T11:45:53.447Z,16.80
2018-10-04T11:48:25.107Z,16.80
2018-10-04T11:50:54.847Z,16.90
2018-10-04T11:53:27.508Z,17.00
2018-10-04T11:55:57.202Z,17.00
2018-10-04T11:58:27.667Z,17.10
2018-10-04T12:00:57.441Z,17.20
2018-10-04T12:03:30.874Z,17.20
2018-10-04T12:06:01.359Z,17.10
2018-10-04T12:08:38.522Z,17.20
2018-10-04T12:11:08.920Z,17.30
2018-10-04T12:13:38.322Z,17.20
2018-10-04T12:16:07.651Z,17.30
2018-10-04T12:21:08.783Z,17.30
2018-10-04T12:23:45.771Z,17.50
2018-10-04T12:26:15.418Z,17.70
2018-10-04T12:28:46.068Z,17.90
2018-10-04T12:31:15.529Z,18.00
2018-10-04T12:33:48.978Z,18.00
2018-10-04T12:36:18.461Z,18.00
2018-10-04T12:38:51.185Z,17.90
2018-10-04T12:41:20.525Z,18.00
2018-10-04T12:43:57.928Z,17.80
2018-10-04T12:46:27.499Z,17.70
2018-10-04T12:48:56.891Z,17.80
2018-10-04T12:51:26.329Z,17.90
2018-10-04T12:54:01.339Z,17.90
2018-10-04T12:56:31.588Z,17.90
2018-10-04T12:59:04.058Z,18.10
2018-10-04T13:01:33.342Z,18.10
2018-10-04T13:04:06.627Z,18.20
2018-10-04T13:06:36.294Z,18.30
2018-10-04T13:09:13.136Z,18.40
2018-10-04T13:11:43.301Z,18.40
2018-10-04T13:14:14.047Z,18.40
2018-10-04T13:19:16.903Z,18.20
2018-10-04T13:21:47.271Z,18.10
2018-10-04T13:24:19.740Z,18.10
2018-10-04T13:26:51.614Z,18.10
2018-10-04T13:29:21.321Z,18.10
2018-10-04T13:31:51.866Z,18.10
2018-10-04T13:34:29.013Z,18.10
2018-10-04T13:36:58.655Z,18.10
2018-10-04T13:39:28.193Z,18.20
2018-10-04T13:41:57.925Z,18.40
2018-10-04T13:44:28.180Z,18.40
2018-10-04T13:46:58.431Z,18.30
2018-10-04T13:49:30.918Z,18.50
2018-10-04T13:52:00.504Z,18.60
2018-10-04T13:54:37.720Z,18.70
2018-10-04T13:57:07.501Z,18.80
2018-10-04T13:59:38.445Z,19.10
2018-10-04T14:02:07.960Z,19.20
2018-10-04T14:04:39.687Z,19.20
2018-10-04T14:07:09.383Z,19.20
2018-10-04T14:09:42.810Z,19.10
2018-10-04T14:12:13.938Z,19.10
2018-10-04T14:14:46.971Z,19.20
2018-10-04T14:17:16.424Z,19.00
2018-10-04T14:19:49.278Z,18.90
2018-10-04T14:22:18.939Z,19.00
2018-10-04T14:27:10.133Z,18.80
2018-10-04T14:29:40.005Z,18.80
2018-10-04T14:32:09.538Z,18.80
2018-10-04T14:35:07.617Z,18.80
2018-10-04T14:37:37.019Z,18.90
2018-10-04T14:40:06.517Z,18.90
2018-10-04T14:42:36.171Z,19.00
2018-10-04T14:45:05.931Z,18.90
2018-10-04T14:47:36.773Z,18.80
2018-10-04T14:50:06.868Z,18.90
2018-10-04T14:59:21.922Z,18.90
2018-10-04T15:01:52.070Z,18.80
2018-10-04T15:04:24.808Z,18.80
2018-10-04T15:06:58.536Z,18.80
2018-10-04T15:09:28.976Z,18.80
2018-10-04T15:11:58.768Z,18.80
2018-10-04T15:14:28.489Z,18.80
2018-10-04T15:16:57.933Z,18.80
2018-10-04T15:19:27.894Z,18.50
2018-10-04T15:21:57.664Z,18.40
2018-10-04T15:24:27.228Z,18.40
2018-10-04T15:26:56.634Z,18.40
2018-10-04T15:29:30.124Z,18.50
2018-10-04T15:31:59.539Z,18.50
2018-10-04T15:34:29.671Z,18.50
2018-10-04T15:36:59.456Z,18.40
2018-10-04T15:42:01.598Z,18.40
2018-10-04T15:44:38.810Z,18.30
2018-10-04T15:47:08.392Z,18.30
2018-10-04T15:49:37.769Z,18.30
2018-10-04T15:52:07.312Z,18.30
2018-10-04T15:54:44.578Z,18.20
2018-10-04T15:57:14.375Z,18.20
2018-10-04T15:59:43.770Z,18.20
2018-10-04T16:02:13.227Z,18.10
2018-10-04T16:04:46.303Z,18.10
2018-10-04T16:07:15.751Z,18.10
2018-10-04T16:09:49.530Z,18.10
2018-10-04T16:12:19.296Z,18.10
2018-10-04T16:14:52.685Z,18.00
2018-10-04T16:17:22.027Z,18.00
2018-10-04T16:19:55.437Z,17.90
2018-10-04T16:22:24.977Z,17.90
2018-10-04T16:24:58.071Z,17.80
2018-10-04T16:27:32.485Z,17.80
2018-10-04T16:30:02.187Z,17.70
2018-10-04T16:32:31.629Z,17.70
2018-10-04T16:35:03.374Z,17.60
2018-10-04T16:37:33.026Z,17.60
2018-10-04T16:40:06.152Z,17.50
2018-10-04T16:42:36.564Z,17.50
2018-10-04T16:45:13.444Z,17.40
2018-10-04T16:47:43.221Z,17.40
2018-10-04T16:50:15.697Z,17.30
2018-10-04T16:52:45.817Z,17.20
2018-10-04T16:55:15.779Z,17.20
2018-10-04T16:57:46.224Z,17.10
2018-10-04T17:00:20.152Z,17.00
2018-10-04T17:02:49.836Z,16.90
2018-10-04T17:05:21.839Z,16.80
2018-10-04T17:07:51.554Z,16.70
2018-10-04T17:10:24.738Z,16.70
2018-10-04T17:12:55.714Z,16.60
2018-10-04T17:15:26.858Z,16.50
2018-10-04T17:17:57.356Z,16.50
2018-10-04T17:20:31.046Z,16.40
2018-10-04T17:23:01.554Z,16.30
2018-10-04T17:25:31.737Z,16.20
2018-10-04T17:28:02.109Z,16.20
2018-10-04T17:30:34.084Z,16.10
2018-10-04T17:33:04.299Z,16.10
2018-10-04T17:35:37.074Z,16.00
2018-10-04T17:38:07.962Z,15.90
2018-10-04T17:40:40.040Z,15.90
2018-10-04T17:43:10.001Z,15.80
2018-10-04T17:45:44.394Z,15.80
2018-10-04T17:48:14.824Z,15.70
2018-10-04T17:50:45.641Z,15.70
2018-10-04T17:53:15.824Z,15.60
2018-10-04T17:55:47.587Z,15.60
2018-10-04T17:58:18.243Z,15.50
2018-10-04T18:00:51.728Z,15.40
2018-10-04T18:03:21.863Z,15.40
2018-10-04T18:05:55.124Z,15.40
2018-10-04T18:08:25.426Z,15.30
2018-10-04T18:10:57.401Z,15.30
2018-10-04T18:13:27.912Z,15.30
2018-10-04T18:15:59.858Z,15.30
2018-10-04T18:18:29.997Z,15.20
2018-10-04T18:21:03.664Z,15.10
2018-10-04T18:23:35.377Z,15.10
2018-10-04T18:26:06.410Z,15.10
2018-10-04T18:28:36.921Z,15.00
2018-10-04T18:31:10.271Z,15.00
2018-10-04T18:33:40.893Z,14.90
2018-10-04T18:36:14.205Z,14.90
2018-10-04T18:38:45.505Z,14.90
2018-10-04T18:41:15.584Z,14.90
2018-10-04T18:43:46.089Z,14.90
2018-10-04T18:46:17.072Z,14.90
2018-10-04T18:48:50.182Z,14.80
2018-10-04T18:51:22.865Z,14.80
2018-10-04T18:53:53.171Z,14.80
2018-10-04T18:56:23.418Z,14.80
2018-10-04T18:58:53.728Z,14.70
2018-10-04T19:01:25.857Z,14.70
2018-10-04T19:03:56.078Z,14.70
2018-10-04T19:06:29.280Z,14.60
2018-10-04T19:08:59.642Z,14.60
2018-10-04T19:11:29.817Z,14.60
2018-10-04T19:14:00.099Z,14.50
2018-10-04T19:16:33.529Z,14.50
2018-10-04T19:19:04.574Z,14.50
2018-10-04T19:21:35.866Z,14.50
2018-10-04T19:24:06.560Z,14.40
2018-10-04T19:26:38.109Z,14.40
2018-10-04T19:29:08.814Z,14.40
2018-10-04T19:31:40.020Z,14.40
2018-10-04T19:34:10.229Z,14.40
2018-10-04T19:36:44.199Z,14.30
2018-10-04T19:39:14.484Z,14.20
2018-10-04T19:41:46.073Z,14.20
2018-10-04T19:44:16.775Z,14.20
2018-10-04T19:46:50.731Z,14.10
2018-10-04T19:49:21.072Z,14.10
2018-10-04T19:51:51.990Z,14.00
2018-10-04T19:54:22.129Z,14.10
2018-10-04T19:56:59.024Z,14.00
2018-10-04T19:59:32.944Z,14.00
2018-10-04T20:02:04.672Z,13.80
2018-10-04T20:04:35.182Z,13.80
2018-10-04T20:07:05.288Z,13.80
2018-10-04T20:09:36.365Z,13.70
2018-10-04T20:12:06.692Z,13.70
2018-10-04T20:14:37.092Z,13.70
2018-10-04T20:17:08.965Z,13.60
2018-10-04T20:19:40.442Z,13.60
2018-10-04T20:22:13.052Z,13.60
2018-10-04T20:24:44.375Z,13.50
2018-10-04T20:27:14.437Z,13.50
2018-10-04T20:29:44.777Z,13.50
2018-10-04T20:32:15.660Z,13.50
2018-10-04T20:34:45.658Z,13.50
2018-10-04T20:37:22.283Z,13.50
2018-10-04T20:39:55.032Z,13.40
2018-10-04T20:42:25.030Z,13.50
2018-10-04T20:44:55.492Z,13.40
2018-10-04T20:47:26.090Z,13.40
2018-10-04T20:49:56.679Z,13.30
2018-10-04T20:52:26.917Z,13.30
2018-10-04T20:54:57.468Z,13.40
2018-10-04T20:57:28.973Z,13.30
2018-10-04T20:59:59.715Z,13.30
2018-10-04T21:02:31.151Z,13.30
2018-10-04T21:05:01.979Z,13.30
2018-10-04T21:07:34.321Z,13.20
2018-10-04T21:10:03.726Z,13.30
2018-10-04T21:12:36.890Z,13.20
2018-10-04T21:15:07.529Z,13.20
2018-10-04T21:17:40.228Z,13.20
2018-10-04T21:20:09.877Z,13.20
2018-10-04T21:22:43.381Z,13.10
2018-10-04T21:25:12.731Z,13.10
2018-10-04T21:27:45.795Z,13.10
2018-10-04T21:30:15.237Z,13.00
2018-10-04T21:32:47.158Z,13.10
2018-10-04T21:35:16.477Z,13.00
2018-10-04T21:37:53.685Z,13.00
2018-10-04T21:40:23.318Z,13.00
2018-10-04T21:42:53.601Z,13.00
2018-10-04T21:45:22.911Z,13.00
2018-10-04T21:47:56.466Z,13.00
2018-10-04T21:50:25.949Z,13.00
2018-10-04T21:52:58.985Z,13.00
2018-10-04T21:55:28.737Z,13.00
2018-10-04T21:58:05.715Z,13.00
2018-10-04T22:00:35.224Z,12.90
2018-10-04T22:03:05.860Z,12.90
2018-10-04T22:05:35.185Z,12.90
2018-10-04T22:08:08.333Z,12.90
2018-10-04T22:10:37.657Z,12.80
2018-10-04T22:13:13.038Z,12.80
2018-10-04T22:15:42.606Z,12.80
2018-10-04T22:18:15.443Z,12.80
2018-10-04T22:20:44.717Z,12.80
2018-10-04T22:23:17.048Z,12.70
2018-10-04T22:25:46.400Z,12.70
2018-10-04T22:28:19.647Z,12.60
2018-10-04T22:30:50.191Z,12.60
2018-10-04T22:33:22.805Z,12.60
2018-10-04T22:35:52.159Z,12.60
2018-10-04T22:38:24.737Z,12.70
2018-10-04T22:40:54.008Z,12.60
2018-10-04T22:43:30.884Z,12.60
2018-10-04T22:46:00.388Z,12.60
2018-10-04T22:48:29.972Z,12.60
2018-10-04T22:50:59.214Z,12.60
2018-10-04T22:53:32.262Z,12.50
2018-10-04T22:56:01.634Z,12.50
2018-10-04T22:58:35.018Z,12.50
2018-10-04T23:01:04.742Z,12.50
2018-10-04T23:03:37.918Z,12.50
2018-10-04T23:06:07.215Z,12.40
2018-10-04T23:08:40.125Z,12.50
2018-10-04T23:11:09.403Z,12.50
2018-10-04T23:13:46.032Z,12.50
2018-10-04T23:16:15.248Z,12.50
2018-10-04T23:18:45.503Z,12.50
2018-10-04T23:21:15.115Z,12.40
2018-10-04T23:23:48.115Z,12.40
2018-10-04T23:26:17.397Z,12.40
2018-10-04T23:28:50.365Z,12.40
2018-10-04T23:31:20.184Z,12.40
2018-10-04T23:33:57.150Z,12.30
2018-10-04T23:36:26.684Z,12.40
2018-10-04T23:38:57.516Z,12.30
2018-10-04T23:41:26.785Z,12.40
2018-10-04T23:43:59.951Z,12.40
2018-10-04T23:46:29.271Z,12.30
2018-10-04T23:49:05.813Z,12.30
2018-10-04T23:51:35.369Z,12.30
2018-10-04T23:54:08.249Z,12.30
2018-10-04T23:56:37.494Z,12.20
2018-10-04T23:59:09.904Z,12.20
